sensor_id;sensor_type;location;lat;lon;timestamp;P1;durP1;ratioP1;P2;durP2;ratioP2
4278;SDS011;2153;47.744;10.580;2022-10-22T00:01:25;13.00;;;1.40;;
4278;SDS011;2153;47.744;10.580;2022-10-22T00:03:52;11.40;;;1.43;;
4278;SDS011;2153;47.744;10.580;2022-10-22T00:06:19;11.27;;;1.53;;
4278;SDS011;2153;47.744;10.580;2022-10-22T00:08:46;11.00;;;1.30;;
4278;SDS011;2153;47.744;10.580;2022-10-22T00:11:13;12.33;;;1.20;;
4278;SDS011;2153;47.744;10.580;2022-10-22T00:13:43;19.33;;;2.10;;
4278;SDS011;2153;47.744;10.580;2022-10-22T00:16:11;12.47;;;1.70;;
4278;SDS011;2153;47.744;10.580;2022-10-22T00:18:38;11.07;;;1.40;;
4278;SDS011;2153;47.744;10.580;2022-10-22T00:21:05;12.43;;;1.70;;
4278;SDS011;2153;47.744;10.580;2022-10-22T00:23:33;11.00;;;1.37;;
4278;SDS011;2153;47.744;10.580;2022-10-22T00:26:00;11.80;;;1.10;;
4278;SDS011;2153;47.744;10.580;2022-10-22T00:28:27;11.73;;;1.30;;
4278;SDS011;2153;47.744;10.580;2022-10-22T00:30:55;11.60;;;1.70;;
4278;SDS011;2153;47.744;10.580;2022-10-22T00:33:23;13.83;;;1.53;;
4278;SDS011;2153;47.744;10.580;2022-10-22T00:35:50;14.10;;;1.60;;
4278;SDS011;2153;47.744;10.580;2022-10-22T00:38:17;11.70;;;1.57;;
4278;SDS011;2153;47.744;10.580;2022-10-22T00:40:44;14.00;;;1.50;;
4278;SDS011;2153;47.744;10.580;2022-10-22T00:43:11;12.83;;;2.03;;
4278;SDS011;2153;47.744;10.580;2022-10-22T00:45:39;19.07;;;1.77;;
4278;SDS011;2153;47.744;10.580;2022-10-22T00:48:10;13.30;;;1.80;;
4278;SDS011;2153;47.744;10.580;2022-10-22T00:50:42;11.63;;;1.73;;
4278;SDS011;2153;47.744;10.580;2022-10-22T00:53:13;14.13;;;1.80;;
4278;SDS011;2153;47.744;10.580;2022-10-22T00:55:42;12.13;;;1.63;;
4278;SDS011;2153;47.744;10.580;2022-10-22T00:58:09;15.27;;;1.70;;
4278;SDS011;2153;47.744;10.580;2022-10-22T01:00:38;11.80;;;1.63;;
4278;SDS011;2153;47.744;10.580;2022-10-22T01:03:06;17.10;;;1.90;;
4278;SDS011;2153;47.744;10.580;2022-10-22T01:05:38;11.00;;;1.47;;
4278;SDS011;2153;47.744;10.580;2022-10-22T01:08:08;12.00;;;1.67;;
4278;SDS011;2153;47.744;10.580;2022-10-22T01:10:45;13.70;;;1.70;;
4278;SDS011;2153;47.744;10.580;2022-10-22T01:13:21;13.23;;;1.70;;
4278;SDS011;2153;47.744;10.580;2022-10-22T01:15:58;16.53;;;1.93;;
4278;SDS011;2153;47.744;10.580;2022-10-22T01:18:33;13.83;;;1.70;;
4278;SDS011;2153;47.744;10.580;2022-10-22T01:21:13;20.50;;;2.20;;
4278;SDS011;2153;47.744;10.580;2022-10-22T01:23:51;13.97;;;2.93;;
4278;SDS011;2153;47.744;10.580;2022-10-22T01:26:59;16.83;;;2.30;;
4278;SDS011;2153;47.744;10.580;2022-10-22T01:29:37;13.40;;;2.50;;
4278;SDS011;2153;47.744;10.580;2022-10-22T01:32:09;14.40;;;2.37;;
4278;SDS011;2153;47.744;10.580;2022-10-22T01:34:39;17.57;;;2.00;;
4278;SDS011;2153;47.744;10.580;2022-10-22T01:37:09;13.87;;;1.83;;
4278;SDS011;2153;47.744;10.580;2022-10-22T01:39:37;20.50;;;2.37;;
4278;SDS011;2153;47.744;10.580;2022-10-22T01:42:07;12.90;;;1.60;;
4278;SDS011;2153;47.744;10.580;2022-10-22T01:44:34;17.23;;;1.43;;
4278;SDS011;2153;47.744;10.580;2022-10-22T01:47:07;15.67;;;1.60;;
4278;SDS011;2153;47.744;10.580;2022-10-22T01:49:48;16.43;;;1.70;;
4278;SDS011;2153;47.744;10.580;2022-10-22T01:52:26;13.47;;;1.10;;
4278;SDS011;2153;47.744;10.580;2022-10-22T01:55:08;11.97;;;1.00;;
4278;SDS011;2153;47.744;10.580;2022-10-22T01:57:43;14.40;;;1.17;;
4278;SDS011;2153;47.744;10.580;2022-10-22T02:00:16;11.87;;;1.00;;
4278;SDS011;2153;47.744;10.580;2022-10-22T02:02:46;15.93;;;0.93;;
4278;SDS011;2153;47.744;10.580;2022-10-22T02:05:21;11.50;;;1.10;;
4278;SDS011;2153;47.744;10.580;2022-10-22T02:07:54;16.00;;;0.93;;
4278;SDS011;2153;47.744;10.580;2022-10-22T02:10:25;11.27;;;0.97;;
4278;SDS011;2153;47.744;10.580;2022-10-22T02:12:54;10.93;;;1.00;;
4278;SDS011;2153;47.744;10.580;2022-10-22T02:15:25;11.87;;;1.10;;
4278;SDS011;2153;47.744;10.580;2022-10-22T02:17:54;10.67;;;1.00;;
4278;SDS011;2153;47.744;10.580;2022-10-22T02:20:24;18.33;;;1.17;;
4278;SDS011;2153;47.744;10.580;2022-10-22T02:22:54;11.10;;;1.20;;
4278;SDS011;2153;47.744;10.580;2022-10-22T02:25:22;13.80;;;0.90;;
4278;SDS011;2153;47.744;10.580;2022-10-22T02:27:53;11.00;;;0.97;;
4278;SDS011;2153;47.744;10.580;2022-10-22T02:30:29;11.23;;;1.17;;
4278;SDS011;2153;47.744;10.580;2022-10-22T02:32:59;10.93;;;1.00;;
4278;SDS011;2153;47.744;10.580;2022-10-22T02:35:32;13.27;;;1.40;;
4278;SDS011;2153;47.744;10.580;2022-10-22T02:38:00;11.10;;;0.90;;
4278;SDS011;2153;47.744;10.580;2022-10-22T02:40:29;10.73;;;0.93;;
4278;SDS011;2153;47.744;10.580;2022-10-22T02:42:56;13.80;;;1.10;;
4278;SDS011;2153;47.744;10.580;2022-10-22T02:45:23;11.10;;;1.00;;
4278;SDS011;2153;47.744;10.580;2022-10-22T02:47:51;12.43;;;1.30;;
4278;SDS011;2153;47.744;10.580;2022-10-22T02:50:18;13.43;;;1.07;;
4278;SDS011;2153;47.744;10.580;2022-10-22T02:52:45;16.70;;;1.00;;
4278;SDS011;2153;47.744;10.580;2022-10-22T02:55:12;11.97;;;0.90;;
4278;SDS011;2153;47.744;10.580;2022-10-22T02:57:38;11.00;;;0.90;;
4278;SDS011;2153;47.744;10.580;2022-10-22T03:00:06;11.10;;;1.00;;
4278;SDS011;2153;47.744;10.580;2022-10-22T03:02:34;11.13;;;1.00;;
4278;SDS011;2153;47.744;10.580;2022-10-22T03:05:02;11.00;;;0.80;;
4278;SDS011;2153;47.744;10.580;2022-10-22T03:07:30;11.50;;;1.07;;
4278;SDS011;2153;47.744;10.580;2022-10-22T03:09:56;12.87;;;0.97;;
4278;SDS011;2153;47.744;10.580;2022-10-22T03:12:23;11.73;;;1.00;;
4278;SDS011;2153;47.744;10.580;2022-10-22T03:14:50;10.27;;;0.70;;
4278;SDS011;2153;47.744;10.580;2022-10-22T03:17:17;10.83;;;0.80;;
4278;SDS011;2153;47.744;10.580;2022-10-22T03:19:44;10.60;;;0.77;;
4278;SDS011;2153;47.744;10.580;2022-10-22T03:22:13;10.30;;;0.70;;
4278;SDS011;2153;47.744;10.580;2022-10-22T03:24:44;10.50;;;0.70;;
4278;SDS011;2153;47.744;10.580;2022-10-22T03:27:14;12.50;;;1.20;;
4278;SDS011;2153;47.744;10.580;2022-10-22T03:29:43;10.37;;;0.60;;
4278;SDS011;2153;47.744;10.580;2022-10-22T03:32:11;11.43;;;0.90;;
4278;SDS011;2153;47.744;10.580;2022-10-22T03:34:38;12.80;;;0.90;;
4278;SDS011;2153;47.744;10.580;2022-10-22T03:37:05;10.27;;;0.60;;
4278;SDS011;2153;47.744;10.580;2022-10-22T03:39:33;10.23;;;0.60;;
4278;SDS011;2153;47.744;10.580;2022-10-22T03:42:01;12.60;;;0.80;;
4278;SDS011;2153;47.744;10.580;2022-10-22T03:44:28;13.57;;;2.03;;
4278;SDS011;2153;47.744;10.580;2022-10-22T03:46:56;11.67;;;1.57;;
4278;SDS011;2153;47.744;10.580;2022-10-22T03:49:23;11.17;;;1.23;;
4278;SDS011;2153;47.744;10.580;2022-10-22T03:51:49;12.77;;;1.67;;
4278;SDS011;2153;47.744;10.580;2022-10-22T03:54:16;17.30;;;1.80;;
4278;SDS011;2153;47.744;10.580;2022-10-22T03:56:44;12.73;;;1.67;;
4278;SDS011;2153;47.744;10.580;2022-10-22T03:59:11;11.70;;;1.30;;
4278;SDS011;2153;47.744;10.580;2022-10-22T04:01:39;13.00;;;1.60;;
4278;SDS011;2153;47.744;10.580;2022-10-22T04:04:06;11.50;;;1.90;;
4278;SDS011;2153;47.744;10.580;2022-10-22T04:06:33;11.00;;;1.60;;
4278;SDS011;2153;47.744;10.580;2022-10-22T04:09:00;11.10;;;1.20;;
4278;SDS011;2153;47.744;10.580;2022-10-22T04:11:26;11.70;;;1.57;;
4278;SDS011;2153;47.744;10.580;2022-10-22T04:13:54;11.30;;;1.10;;
4278;SDS011;2153;47.744;10.580;2022-10-22T04:16:21;16.63;;;1.27;;
4278;SDS011;2153;47.744;10.580;2022-10-22T04:18:49;12.30;;;1.00;;
4278;SDS011;2153;47.744;10.580;2022-10-22T04:21:16;14.00;;;1.00;;
4278;SDS011;2153;47.744;10.580;2022-10-22T04:23:44;16.57;;;1.47;;
4278;SDS011;2153;47.744;10.580;2022-10-22T04:26:11;10.83;;;1.13;;
4278;SDS011;2153;47.744;10.580;2022-10-22T04:28:38;10.73;;;1.00;;
4278;SDS011;2153;47.744;10.580;2022-10-22T04:31:09;11.20;;;1.30;;
4278;SDS011;2153;47.744;10.580;2022-10-22T04:33:38;21.23;;;2.33;;
4278;SDS011;2153;47.744;10.580;2022-10-22T04:36:06;11.17;;;1.37;;
4278;SDS011;2153;47.744;10.580;2022-10-22T04:38:34;12.97;;;1.43;;
4278;SDS011;2153;47.744;10.580;2022-10-22T04:41:07;11.50;;;1.40;;
4278;SDS011;2153;47.744;10.580;2022-10-22T04:43:35;10.73;;;1.20;;
4278;SDS011;2153;47.744;10.580;2022-10-22T04:46:02;11.37;;;1.40;;
4278;SDS011;2153;47.744;10.580;2022-10-22T04:48:30;12.13;;;1.13;;
4278;SDS011;2153;47.744;10.580;2022-10-22T04:50:57;11.80;;;1.20;;
4278;SDS011;2153;47.744;10.580;2022-10-22T04:53:24;12.23;;;1.10;;
4278;SDS011;2153;47.744;10.580;2022-10-22T04:55:51;14.57;;;1.40;;
4278;SDS011;2153;47.744;10.580;2022-10-22T04:58:18;11.50;;;1.30;;
4278;SDS011;2153;47.744;10.580;2022-10-22T05:00:45;11.90;;;1.30;;
4278;SDS011;2153;47.744;10.580;2022-10-22T05:03:12;14.40;;;2.17;;
4278;SDS011;2153;47.744;10.580;2022-10-22T05:05:40;13.90;;;1.30;;
4278;SDS011;2153;47.744;10.580;2022-10-22T05:08:07;12.17;;;1.20;;
4278;SDS011;2153;47.744;10.580;2022-10-22T05:10:33;14.10;;;1.37;;
4278;SDS011;2153;47.744;10.580;2022-10-22T05:13:00;11.57;;;1.60;;
4278;SDS011;2153;47.744;10.580;2022-10-22T05:15:27;14.00;;;1.63;;
4278;SDS011;2153;47.744;10.580;2022-10-22T05:17:54;11.60;;;2.13;;
4278;SDS011;2153;47.744;10.580;2022-10-22T05:20:20;11.10;;;1.43;;
4278;SDS011;2153;47.744;10.580;2022-10-22T05:22:48;11.57;;;1.37;;
4278;SDS011;2153;47.744;10.580;2022-10-22T05:25:15;11.30;;;1.53;;
4278;SDS011;2153;47.744;10.580;2022-10-22T05:27:42;12.37;;;1.80;;
4278;SDS011;2153;47.744;10.580;2022-10-22T05:30:09;12.20;;;1.50;;
4278;SDS011;2153;47.744;10.580;2022-10-22T05:32:36;11.10;;;1.30;;
4278;SDS011;2153;47.744;10.580;2022-10-22T05:35:03;14.10;;;1.00;;
4278;SDS011;2153;47.744;10.580;2022-10-22T05:37:30;11.27;;;1.13;;
4278;SDS011;2153;47.744;10.580;2022-10-22T05:39:59;15.40;;;1.10;;
4278;SDS011;2153;47.744;10.580;2022-10-22T05:42:29;10.43;;;0.77;;
4278;SDS011;2153;47.744;10.580;2022-10-22T05:44:56;11.13;;;0.83;;
4278;SDS011;2153;47.744;10.580;2022-10-22T05:47:23;12.30;;;1.00;;
4278;SDS011;2153;47.744;10.580;2022-10-22T05:49:50;10.60;;;0.80;;
4278;SDS011;2153;47.744;10.580;2022-10-22T05:52:17;10.90;;;1.00;;
4278;SDS011;2153;47.744;10.580;2022-10-22T05:54:44;13.50;;;1.20;;
4278;SDS011;2153;47.744;10.580;2022-10-22T05:57:12;11.63;;;0.90;;
4278;SDS011;2153;47.744;10.580;2022-10-22T05:59:39;10.80;;;1.00;;
4278;SDS011;2153;47.744;10.580;2022-10-22T06:02:06;13.37;;;1.20;;
4278;SDS011;2153;47.744;10.580;2022-10-22T06:04:34;13.70;;;1.50;;
4278;SDS011;2153;47.744;10.580;2022-10-22T06:07:01;11.50;;;1.60;;
4278;SDS011;2153;47.744;10.580;2022-10-22T06:09:29;13.60;;;1.53;;
4278;SDS011;2153;47.744;10.580;2022-10-22T06:11:59;10.67;;;1.07;;
4278;SDS011;2153;47.744;10.580;2022-10-22T06:14:27;10.60;;;1.10;;
4278;SDS011;2153;47.744;10.580;2022-10-22T06:16:57;11.10;;;1.10;;
4278;SDS011;2153;47.744;10.580;2022-10-22T06:19:24;11.40;;;1.47;;
4278;SDS011;2153;47.744;10.580;2022-10-22T06:21:51;14.27;;;3.30;;
4278;SDS011;2153;47.744;10.580;2022-10-22T06:24:18;12.90;;;2.43;;
4278;SDS011;2153;47.744;10.580;2022-10-22T06:26:48;11.80;;;1.97;;
4278;SDS011;2153;47.744;10.580;2022-10-22T06:29:14;12.53;;;2.20;;
4278;SDS011;2153;47.744;10.580;2022-10-22T06:31:43;11.27;;;1.60;;
4278;SDS011;2153;47.744;10.580;2022-10-22T06:34:11;12.33;;;1.60;;
4278;SDS011;2153;47.744;10.580;2022-10-22T06:36:38;10.57;;;0.90;;
4278;SDS011;2153;47.744;10.580;2022-10-22T06:39:08;12.70;;;1.00;;
4278;SDS011;2153;47.744;10.580;2022-10-22T06:41:37;13.20;;;1.00;;
4278;SDS011;2153;47.744;10.580;2022-10-22T06:44:04;12.90;;;1.03;;
4278;SDS011;2153;47.744;10.580;2022-10-22T06:46:30;22.13;;;3.40;;
4278;SDS011;2153;47.744;10.580;2022-10-22T06:48:59;10.60;;;0.93;;
4278;SDS011;2153;47.744;10.580;2022-10-22T06:51:29;10.80;;;1.07;;
4278;SDS011;2153;47.744;10.580;2022-10-22T06:53:57;10.27;;;0.87;;
4278;SDS011;2153;47.744;10.580;2022-10-22T06:56:25;10.70;;;0.90;;
4278;SDS011;2153;47.744;10.580;2022-10-22T06:58:53;11.47;;;1.13;;
4278;SDS011;2153;47.744;10.580;2022-10-22T07:01:21;10.40;;;1.10;;
4278;SDS011;2153;47.744;10.580;2022-10-22T07:03:50;16.20;;;1.80;;
4278;SDS011;2153;47.744;10.580;2022-10-22T07:06:19;13.70;;;2.10;;
4278;SDS011;2153;47.744;10.580;2022-10-22T07:08:47;11.17;;;1.60;;
4278;SDS011;2153;47.744;10.580;2022-10-22T07:11:15;11.97;;;2.30;;
4278;SDS011;2153;47.744;10.580;2022-10-22T07:13:43;16.23;;;1.70;;
4278;SDS011;2153;47.744;10.580;2022-10-22T07:16:11;12.17;;;1.67;;
4278;SDS011;2153;47.744;10.580;2022-10-22T07:18:38;11.10;;;1.00;;
4278;SDS011;2153;47.744;10.580;2022-10-22T07:21:06;10.47;;;1.10;;
4278;SDS011;2153;47.744;10.580;2022-10-22T07:23:35;11.50;;;1.20;;
4278;SDS011;2153;47.744;10.580;2022-10-22T07:26:03;10.60;;;0.97;;
4278;SDS011;2153;47.744;10.580;2022-10-22T07:28:31;10.40;;;0.80;;
4278;SDS011;2153;47.744;10.580;2022-10-22T07:30:58;11.57;;;0.90;;
4278;SDS011;2153;47.744;10.580;2022-10-22T07:33:25;12.03;;;1.30;;
4278;SDS011;2153;47.744;10.580;2022-10-22T07:35:56;11.20;;;1.40;;
4278;SDS011;2153;47.744;10.580;2022-10-22T07:38:23;12.73;;;2.07;;
4278;SDS011;2153;47.744;10.580;2022-10-22T07:40:51;12.10;;;1.90;;
4278;SDS011;2153;47.744;10.580;2022-10-22T07:43:19;13.73;;;3.40;;
4278;SDS011;2153;47.744;10.580;2022-10-22T07:45:46;12.83;;;2.20;;
4278;SDS011;2153;47.744;10.580;2022-10-22T07:48:13;13.07;;;2.17;;
4278;SDS011;2153;47.744;10.580;2022-10-22T07:50:39;14.73;;;3.80;;
4278;SDS011;2153;47.744;10.580;2022-10-22T07:53:06;11.67;;;1.73;;
4278;SDS011;2153;47.744;10.580;2022-10-22T07:55:33;13.90;;;2.53;;
4278;SDS011;2153;47.744;10.580;2022-10-22T07:58:02;15.07;;;2.20;;
4278;SDS011;2153;47.744;10.580;2022-10-22T08:00:28;15.23;;;2.50;;
4278;SDS011;2153;47.744;10.580;2022-10-22T08:02:55;17.57;;;2.30;;
4278;SDS011;2153;47.744;10.580;2022-10-22T08:05:22;14.07;;;2.53;;
4278;SDS011;2153;47.744;10.580;2022-10-22T08:07:49;17.73;;;3.10;;
4278;SDS011;2153;47.744;10.580;2022-10-22T08:10:15;15.07;;;2.60;;
4278;SDS011;2153;47.744;10.580;2022-10-22T08:12:42;14.30;;;2.73;;
4278;SDS011;2153;47.744;10.580;2022-10-22T08:15:10;12.13;;;1.57;;
4278;SDS011;2153;47.744;10.580;2022-10-22T08:17:37;13.70;;;2.30;;
4278;SDS011;2153;47.744;10.580;2022-10-22T08:20:04;15.60;;;2.60;;
4278;SDS011;2153;47.744;10.580;2022-10-22T08:22:32;14.83;;;1.90;;
4278;SDS011;2153;47.744;10.580;2022-10-22T08:24:58;14.90;;;2.20;;
4278;SDS011;2153;47.744;10.580;2022-10-22T08:27:25;11.67;;;1.33;;
4278;SDS011;2153;47.744;10.580;2022-10-22T08:29:52;11.50;;;1.60;;
4278;SDS011;2153;47.744;10.580;2022-10-22T08:32:20;10.60;;;0.90;;
4278;SDS011;2153;47.744;10.580;2022-10-22T08:34:47;11.07;;;1.10;;
4278;SDS011;2153;47.744;10.580;2022-10-22T08:37:14;10.33;;;0.90;;
4278;SDS011;2153;47.744;10.580;2022-10-22T08:39:41;10.80;;;1.00;;
4278;SDS011;2153;47.744;10.580;2022-10-22T08:42:14;10.90;;;1.20;;
4278;SDS011;2153;47.744;10.580;2022-10-22T08:44:58;16.03;;;1.30;;
4278;SDS011;2153;47.744;10.580;2022-10-22T08:47:40;11.80;;;1.53;;
4278;SDS011;2153;47.744;10.580;2022-10-22T08:50:23;11.60;;;1.23;;
4278;SDS011;2153;47.744;10.580;2022-10-22T08:52:56;10.93;;;1.23;;
4278;SDS011;2153;47.744;10.580;2022-10-22T08:55:27;11.60;;;1.00;;
4278;SDS011;2153;47.744;10.580;2022-10-22T08:57:57;11.90;;;1.50;;
4278;SDS011;2153;47.744;10.580;2022-10-22T09:00:30;10.67;;;0.90;;
4278;SDS011;2153;47.744;10.580;2022-10-22T09:03:06;10.90;;;1.13;;
4278;SDS011;2153;47.744;10.580;2022-10-22T09:05:50;11.00;;;1.17;;
4278;SDS011;2153;47.744;10.580;2022-10-22T09:08:24;10.57;;;1.00;;
4278;SDS011;2153;47.744;10.580;2022-10-22T09:11:00;10.40;;;1.03;;
4278;SDS011;2153;47.744;10.580;2022-10-22T09:13:30;10.50;;;1.07;;
4278;SDS011;2153;47.744;10.580;2022-10-22T09:15:59;10.30;;;1.00;;
4278;SDS011;2153;47.744;10.580;2022-10-22T09:18:39;10.20;;;0.83;;
4278;SDS011;2153;47.744;10.580;2022-10-22T09:21:14;13.77;;;0.90;;
4278;SDS011;2153;47.744;10.580;2022-10-22T09:23:51;10.20;;;0.70;;
4278;SDS011;2153;47.744;10.580;2022-10-22T09:26:24;10.83;;;0.80;;
4278;SDS011;2153;47.744;10.580;2022-10-22T09:28:51;10.60;;;0.90;;
4278;SDS011;2153;47.744;10.580;2022-10-22T09:31:18;10.03;;;0.70;;
4278;SDS011;2153;47.744;10.580;2022-10-22T09:33:46;10.20;;;0.93;;
4278;SDS011;2153;47.744;10.580;2022-10-22T09:36:16;10.50;;;0.80;;
4278;SDS011;2153;47.744;10.580;2022-10-22T09:38:48;10.40;;;0.70;;
4278;SDS011;2153;47.744;10.580;2022-10-22T09:41:16;10.87;;;0.70;;
4278;SDS011;2153;47.744;10.580;2022-10-22T09:43:45;10.83;;;0.80;;
4278;SDS011;2153;47.744;10.580;2022-10-22T09:46:14;10.80;;;0.70;;
4278;SDS011;2153;47.744;10.580;2022-10-22T09:48:43;11.20;;;0.70;;
4278;SDS011;2153;47.744;10.580;2022-10-22T09:51:17;12.20;;;0.80;;
4278;SDS011;2153;47.744;10.580;2022-10-22T09:53:46;10.83;;;0.73;;
4278;SDS011;2153;47.744;10.580;2022-10-22T09:56:22;11.67;;;0.73;;
4278;SDS011;2153;47.744;10.580;2022-10-22T09:58:51;10.90;;;0.70;;
4278;SDS011;2153;47.744;10.580;2022-10-22T10:01:21;10.37;;;0.70;;
4278;SDS011;2153;47.744;10.580;2022-10-22T10:03:51;13.23;;;0.90;;
4278;SDS011;2153;47.744;10.580;2022-10-22T10:06:18;16.53;;;0.80;;
4278;SDS011;2153;47.744;10.580;2022-10-22T10:08:47;10.07;;;0.60;;
4278;SDS011;2153;47.744;10.580;2022-10-22T10:11:16;12.40;;;0.90;;
4278;SDS011;2153;47.744;10.580;2022-10-22T10:13:51;10.83;;;0.80;;
4278;SDS011;2153;47.744;10.580;2022-10-22T10:16:25;11.17;;;0.77;;
4278;SDS011;2153;47.744;10.580;2022-10-22T10:19:09;10.37;;;0.60;;
4278;SDS011;2153;47.744;10.580;2022-10-22T10:21:47;10.97;;;0.70;;
4278;SDS011;2153;47.744;10.580;2022-10-22T10:24:21;10.67;;;0.50;;
4278;SDS011;2153;47.744;10.580;2022-10-22T10:26:55;16.70;;;0.70;;
4278;SDS011;2153;47.744;10.580;2022-10-22T10:29:35;11.93;;;0.50;;
4278;SDS011;2153;47.744;10.580;2022-10-22T10:35:02;13.40;;;0.70;;
4278;SDS011;2153;47.744;10.580;2022-10-22T10:37:42;11.00;;;0.70;;
4278;SDS011;2153;47.744;10.580;2022-10-22T10:40:18;12.67;;;1.37;;
4278;SDS011;2153;47.744;10.580;2022-10-22T10:42:52;11.70;;;0.60;;
4278;SDS011;2153;47.744;10.580;2022-10-22T10:45:23;11.67;;;0.87;;
4278;SDS011;2153;47.744;10.580;2022-10-22T10:51:02;10.33;;;0.50;;
4278;SDS011;2153;47.744;10.580;2022-10-22T10:53:37;10.50;;;0.60;;
4278;SDS011;2153;47.744;10.580;2022-10-22T10:56:19;10.43;;;0.60;;
4278;SDS011;2153;47.744;10.580;2022-10-22T10:58:57;11.30;;;0.63;;
4278;SDS011;2153;47.744;10.580;2022-10-22T11:01:28;10.70;;;0.97;;
4278;SDS011;2153;47.744;10.580;2022-10-22T11:04:13;10.67;;;0.60;;
4278;SDS011;2153;47.744;10.580;2022-10-22T11:07:03;10.47;;;0.50;;
4278;SDS011;2153;47.744;10.580;2022-10-22T11:09:35;10.90;;;0.93;;
4278;SDS011;2153;47.744;10.580;2022-10-22T11:12:05;10.40;;;0.50;;
4278;SDS011;2153;47.744;10.580;2022-10-22T11:14:40;12.07;;;0.50;;
4278;SDS011;2153;47.744;10.580;2022-10-22T11:17:15;10.67;;;0.60;;
4278;SDS011;2153;47.744;10.580;2022-10-22T11:19:44;11.40;;;0.80;;
4278;SDS011;2153;47.744;10.580;2022-10-22T11:22:18;10.93;;;0.60;;
4278;SDS011;2153;47.744;10.580;2022-10-22T11:24:51;10.40;;;0.50;;
4278;SDS011;2153;47.744;10.580;2022-10-22T11:27:24;18.30;;;0.70;;
4278;SDS011;2153;47.744;10.580;2022-10-22T11:30:03;10.63;;;0.70;;
4278;SDS011;2153;47.744;10.580;2022-10-22T11:32:36;10.97;;;0.83;;
4278;SDS011;2153;47.744;10.580;2022-10-22T11:35:04;11.17;;;0.70;;
4278;SDS011;2153;47.744;10.580;2022-10-22T11:37:35;10.77;;;0.60;;
4278;SDS011;2153;47.744;10.580;2022-10-22T11:40:04;11.10;;;0.80;;
4278;SDS011;2153;47.744;10.580;2022-10-22T11:42:33;11.10;;;0.80;;
4278;SDS011;2153;47.744;10.580;2022-10-22T11:45:03;11.23;;;0.80;;
4278;SDS011;2153;47.744;10.580;2022-10-22T11:47:56;18.00;;;1.00;;
4278;SDS011;2153;47.744;10.580;2022-10-22T11:50:25;13.53;;;1.50;;
4278;SDS011;2153;47.744;10.580;2022-10-22T11:53:00;12.00;;;1.00;;
4278;SDS011;2153;47.744;10.580;2022-10-22T11:55:33;10.93;;;0.70;;
4278;SDS011;2153;47.744;10.580;2022-10-22T11:58:24;10.87;;;0.73;;
4278;SDS011;2153;47.744;10.580;2022-10-22T12:00:56;11.13;;;0.80;;
4278;SDS011;2153;47.744;10.580;2022-10-22T12:03:42;11.80;;;0.97;;
4278;SDS011;2153;47.744;10.580;2022-10-22T12:06:18;11.50;;;0.90;;
4278;SDS011;2153;47.744;10.580;2022-10-22T12:08:55;11.00;;;0.80;;
4278;SDS011;2153;47.744;10.580;2022-10-22T12:11:24;11.70;;;0.87;;
4278;SDS011;2153;47.744;10.580;2022-10-22T12:14:10;11.30;;;0.80;;
4278;SDS011;2153;47.744;10.580;2022-10-22T12:16:42;10.80;;;0.70;;
4278;SDS011;2153;47.744;10.580;2022-10-22T12:19:11;13.97;;;0.70;;
4278;SDS011;2153;47.744;10.580;2022-10-22T12:21:42;13.37;;;0.80;;
4278;SDS011;2153;47.744;10.580;2022-10-22T12:24:14;12.10;;;0.90;;
4278;SDS011;2153;47.744;10.580;2022-10-22T12:26:42;10.83;;;0.70;;
4278;SDS011;2153;47.744;10.580;2022-10-22T12:29:10;14.03;;;1.17;;
4278;SDS011;2153;47.744;10.580;2022-10-22T12:31:39;11.27;;;0.80;;
4278;SDS011;2153;47.744;10.580;2022-10-22T12:34:10;11.40;;;0.80;;
4278;SDS011;2153;47.744;10.580;2022-10-22T12:36:40;11.10;;;0.73;;
4278;SDS011;2153;47.744;10.580;2022-10-22T12:39:11;11.40;;;0.90;;
4278;SDS011;2153;47.744;10.580;2022-10-22T12:41:41;12.93;;;0.90;;
4278;SDS011;2153;47.744;10.580;2022-10-22T12:44:10;13.13;;;0.90;;
4278;SDS011;2153;47.744;10.580;2022-10-22T12:46:38;11.10;;;1.13;;
4278;SDS011;2153;47.744;10.580;2022-10-22T12:49:07;12.40;;;1.10;;
4278;SDS011;2153;47.744;10.580;2022-10-22T12:51:39;11.97;;;1.10;;
4278;SDS011;2153;47.744;10.580;2022-10-22T12:54:07;12.67;;;1.10;;
4278;SDS011;2153;47.744;10.580;2022-10-22T12:56:40;12.43;;;0.90;;
4278;SDS011;2153;47.744;10.580;2022-10-22T12:59:09;11.70;;;0.80;;
4278;SDS011;2153;47.744;10.580;2022-10-22T13:01:41;12.07;;;0.90;;
4278;SDS011;2153;47.744;10.580;2022-10-22T13:04:17;14.13;;;0.80;;
4278;SDS011;2153;47.744;10.580;2022-10-22T13:06:46;11.37;;;1.00;;
4278;SDS011;2153;47.744;10.580;2022-10-22T13:09:15;13.63;;;1.00;;
4278;SDS011;2153;47.744;10.580;2022-10-22T13:11:54;18.23;;;0.90;;
4278;SDS011;2153;47.744;10.580;2022-10-22T13:14:29;11.37;;;0.90;;
4278;SDS011;2153;47.744;10.580;2022-10-22T13:19:46;11.90;;;0.80;;
4278;SDS011;2153;47.744;10.580;2022-10-22T13:22:31;15.77;;;1.00;;
4278;SDS011;2153;47.744;10.580;2022-10-22T13:25:03;12.00;;;1.13;;
4278;SDS011;2153;47.744;10.580;2022-10-22T13:27:46;11.50;;;0.90;;
4278;SDS011;2153;47.744;10.580;2022-10-22T13:30:16;11.17;;;0.90;;
4278;SDS011;2153;47.744;10.580;2022-10-22T13:32:48;11.20;;;0.90;;
4278;SDS011;2153;47.744;10.580;2022-10-22T13:35:17;14.40;;;1.53;;
4278;SDS011;2153;47.744;10.580;2022-10-22T13:37:48;13.57;;;1.50;;
4278;SDS011;2153;47.744;10.580;2022-10-22T13:40:15;17.53;;;1.70;;
4278;SDS011;2153;47.744;10.580;2022-10-22T13:42:47;12.67;;;0.90;;
4278;SDS011;2153;47.744;10.580;2022-10-22T13:45:13;13.60;;;1.17;;
4278;SDS011;2153;47.744;10.580;2022-10-22T13:47:41;12.90;;;0.80;;
4278;SDS011;2153;47.744;10.580;2022-10-22T13:50:11;11.20;;;1.10;;
4278;SDS011;2153;47.744;10.580;2022-10-22T13:52:40;10.93;;;0.87;;
4278;SDS011;2153;47.744;10.580;2022-10-22T13:55:12;12.63;;;1.07;;
4278;SDS011;2153;47.744;10.580;2022-10-22T13:57:41;11.03;;;0.80;;
4278;SDS011;2153;47.744;10.580;2022-10-22T14:00:11;11.10;;;0.80;;
4278;SDS011;2153;47.744;10.580;2022-10-22T14:02:39;10.77;;;0.70;;
4278;SDS011;2153;47.744;10.580;2022-10-22T14:05:06;12.23;;;1.13;;
4278;SDS011;2153;47.744;10.580;2022-10-22T14:07:35;13.23;;;0.80;;
4278;SDS011;2153;47.744;10.580;2022-10-22T14:10:05;15.27;;;0.87;;
4278;SDS011;2153;47.744;10.580;2022-10-22T14:12:38;16.90;;;0.80;;
4278;SDS011;2153;47.744;10.580;2022-10-22T14:15:05;11.10;;;0.80;;
4278;SDS011;2153;47.744;10.580;2022-10-22T14:17:34;13.53;;;0.97;;
4278;SDS011;2153;47.744;10.580;2022-10-22T14:20:01;14.80;;;0.97;;
4278;SDS011;2153;47.744;10.580;2022-10-22T14:22:28;14.70;;;1.03;;
4278;SDS011;2153;47.744;10.580;2022-10-22T14:24:55;11.70;;;1.20;;
4278;SDS011;2153;47.744;10.580;2022-10-22T14:27:22;12.30;;;0.83;;
4278;SDS011;2153;47.744;10.580;2022-10-22T14:29:49;14.17;;;1.30;;
4278;SDS011;2153;47.744;10.580;2022-10-22T14:32:16;11.87;;;0.80;;
4278;SDS011;2153;47.744;10.580;2022-10-22T14:34:45;12.07;;;0.83;;
4278;SDS011;2153;47.744;10.580;2022-10-22T14:37:14;11.60;;;0.80;;
4278;SDS011;2153;47.744;10.580;2022-10-22T14:39:43;15.50;;;1.20;;
4278;SDS011;2153;47.744;10.580;2022-10-22T14:42:15;12.63;;;0.80;;
4278;SDS011;2153;47.744;10.580;2022-10-22T14:44:43;11.40;;;0.90;;
4278;SDS011;2153;47.744;10.580;2022-10-22T14:47:09;18.70;;;1.37;;
4278;SDS011;2153;47.744;10.580;2022-10-22T14:49:36;12.47;;;1.17;;
4278;SDS011;2153;47.744;10.580;2022-10-22T14:52:04;14.60;;;1.47;;
4278;SDS011;2153;47.744;10.580;2022-10-22T14:54:31;12.60;;;1.40;;
4278;SDS011;2153;47.744;10.580;2022-10-22T14:56:59;12.37;;;1.30;;
4278;SDS011;2153;47.744;10.580;2022-10-22T14:59:26;12.10;;;1.40;;
4278;SDS011;2153;47.744;10.580;2022-10-22T15:01:52;11.47;;;0.97;;
4278;SDS011;2153;47.744;10.580;2022-10-22T15:04:19;28.27;;;1.40;;
4278;SDS011;2153;47.744;10.580;2022-10-22T15:06:46;11.20;;;0.80;;
4278;SDS011;2153;47.744;10.580;2022-10-22T15:09:14;11.43;;;1.10;;
4278;SDS011;2153;47.744;10.580;2022-10-22T15:11:41;11.63;;;1.07;;
4278;SDS011;2153;47.744;10.580;2022-10-22T15:14:08;16.63;;;1.23;;